Maryborough Composite, Australia

12:39 AM AEST on December 06, 2016 (GMT +1000)
Hospital Area | | Change Station

Elev 43 ft 25.52 °S, 152.69 °E | Updated 9 minutes ago

Scattered Clouds
Scattered Clouds
76.5 °F
Feels Like 78 °F
N
7.0
Wind Variable Wind from NNW
Gusts 9.0 mph

Today
High -- | Low -- °F
--% Chance of Precip.
Yesterday
High -- | Low -- °F
Precip. -- in
Pressure 29.95 in
Visibility 6.2 miles
Clouds Scattered Clouds 2300 ft
Heat Index 78 °F
Dew Point 71 °F
Humidity 82%
Rainfall 0.00 in
Snow Depth Not available.
4:50 AM 6:30 PM
Waxing Crescent, 32% visible
METAR YBUD 051400Z AUTO 36010KT 9999 // SCT023 25/20 Q1014
Pressure 29.95 in
Visibility 6.2 miles
Clouds Scattered Clouds 2300 ft
Heat Index 78 °F
Dew Point 71 °F
Humidity 82%
Rainfall 0.00 in
Snow Depth Not available.
4:50 AM 6:30 PM
Waxing Crescent, 32% visible
METAR YBUD 051400Z AUTO 36010KT 9999 // SCT023 25/20 Q1014

10-Day Weather Forecast

×

Almanac

Astronomy

Dec. 06, 2016 Rise Set
Actual Time
Civil Twilight
Nautical Twilight
Astronomical Twilight
Moon
Length of Visible Light
Length of Day
Tomorrow will be .
, % of the Moon is Illuminated

Today's Extremes

Country Highs Country Lows

Community

WunderPhotos

Upload Photos

1,955,782 photos uploaded!

WunderBlog® & News

Nearby

Air Quality

  Air Quality AQ Index Pollutant
Not available.

Snow Depth

Station Depth Elevation

Earthquake Activity

City Distance Mag. Time & Date
Minimum magnitude displayed is 2.5.

Coastal Water Temperatures

Place Temperature

Stations

Nearby Weather Stations

Station Location Temp. Windchill Dew Point Humidity Wind Precip. Elev Updated Type